Latest Weather Observations for Jandakot

IDW60801

Issued at 12:33 pm WST Saturday 1 October 2016 (issued every 30 minutes, with the page automatically refreshed every 10 minutes)

About weather observations | Map of weather stations | Latest weather observations for WA | Other Formats
Station Details ID: 009172 Name: JANDAKOT AERO Lat: -32.10 Lon: 115.88 Height: 30.0 m
Data from the previous 72 hours. | See also: Recent months at Jandakot
Date/Time
WST
Temp
°C
App
Temp
°C
Dew
Point
°C
Rel
Hum
%
Delta-T
°C
Wind Press
QNH
hPa
Press
MSL
hPa
Rain since
9am
mm
Dir  Spd
km/h
Gust
km/h
Spd
kts
Gust
kts
01/12:30pm 15.0 4.8 3.1 45 5.4 WSW 46 67 25 36 1005.7 1005.6 0.8
01/12:07pm 15.1 5.0 5.5 52 4.6 WSW 48 67 26 36 1005.5 1005.4 0.8
01/12:00pm 14.7 4.1 5.2 53 4.5 WSW 50 67 27 36 1005.6 1005.5 0.8
01/11:30am 12.1 2.6 8.3 77 1.9 SW 48 67 26 36 1005.8 1005.7 0.8
01/11:00am 15.8 7.8 7.4 57 4.2 SW 39 57 21 31 1005.6 1005.5 0.0
01/10:30am 15.7 4.2 4.4 47 5.3 WSW 54 74 29 40 1005.2 1005.1 0.0
01/10:00am 15.4 4.8 5.1 50 4.9 WSW 50 72 27 39 1005.2 1005.1 0.0
01/09:30am 15.3 4.6 4.7 49 5.0 WSW 50 80 27 43 1004.9 1004.8 0.0
01/09:00am 15.4 4.8 7.1 57 4.1 WSW 52 72 28 39 1004.6 1004.5 3.4
01/08:33am 15.0 5.4 7.8 62 3.6 WSW 48 67 26 36 1004.2 1004.1 3.4
01/08:30am 15.1 4.7 6.2 55 4.3 WSW 50 67 27 36 1004.0 1003.9 3.4
01/08:00am 15.4 6.2 8.1 61 3.7 WSW 46 65 25 35 1003.7 1003.6 3.4
01/07:30am 14.0 4.0 10.8 81 1.7 WSW 54 76 29 41 1003.5 1003.4 3.4
01/07:00am 14.3 6.6 11.5 83 1.5 W 43 61 23 33 1003.0 1002.9 3.4
01/06:31am 13.6 6.3 11.5 87 1.1 W 41 59 22 32 1002.7 1002.6 3.4
01/06:30am 13.5 5.8 11.4 87 1.1 W 43 59 23 32 1002.7 1002.6 3.4
01/06:01am 15.1 9.2 10.4 73 2.5 WNW 32 50 17 27 1002.4 1002.3 2.4
01/06:00am 14.9 9.0 10.6 75 2.3 WNW 32 43 17 23 1002.4 1002.3 2.4
01/05:40am 14.4 7.2 10.6 78 2.0 WNW 39 57 21 31 1002.5 1002.4 2.4
01/05:30am 14.2 6.2 10.6 79 1.9 WNW 43 57 23 31 1002.7 1002.6 2.4
01/05:00am 15.9 8.5 9.8 67 3.2 WNW 39 57 21 31 1002.4 1002.3 1.0
01/04:32am 15.8 9.1 9.5 66 3.3 WNW 35 56 19 30 1002.4 1002.3 1.0
01/04:30am 15.7 9.3 9.3 65 3.3 WNW 33 44 18 24 1002.5 1002.4 1.0
01/04:00am 15.5 9.6 8.9 65 3.4 WNW 30 39 16 21 1002.4 1002.3 1.0
01/03:30am 15.4 9.8 8.8 65 3.4 WNW 28 43 15 23 1002.9 1002.8 1.0
01/03:00am 15.3 8.9 8.4 63 3.5 WNW 32 43 17 23 1003.3 1003.2 1.0
01/02:30am 15.0 9.8 9.0 67 3.1 WNW 26 35 14 19 1003.9 1003.8 1.0
01/02:00am 15.0 9.0 8.7 66 3.2 WNW 30 39 16 21 1004.1 1004.0 1.0
01/01:30am 15.0 10.0 9.4 69 2.9 WNW 26 33 14 18 1004.2 1004.1 1.0
01/01:00am 14.6 9.8 8.9 68 2.9 WNW 24 35 13 19 1004.6 1004.5 1.0
01/12:30am 14.9 11.0 9.5 70 2.8 WNW 20 30 11 16 1004.9 1004.8 1.0
01/12:00am 14.5 11.0 10.1 75 2.3 WNW 19 24 10 13 1005.1 1005.0 1.0
 
Date/Time
WST
Temp
°C
App
Temp
°C
Dew
Point
°C
Rel
Hum
%
Delta-T
°C
Wind Press
QNH
hPa
Press
MSL
hPa
Rain since
9am
mm
Dir  Spd
km/h
Gust
km/h
Spd
kts
Gust
kts
30/11:30pm 13.9 12.5 10.9 82 1.6 WNW 9 13 5 7 1005.6 1005.5 1.0
30/11:00pm 13.3 11.3 10.2 81 1.6 W 11 13 6 7 1005.9 1005.8 1.0
30/10:30pm 13.7 11.8 10.5 81 1.7 WNW 11 15 6 8 1006.0 1005.9 1.0
30/10:00pm 14.3 11.4 10.9 80 1.8 WSW 17 22 9 12 1006.7 1006.6 1.0
30/09:30pm 14.7 12.6 11.3 80 1.8 W 13 26 7 14 1007.1 1007.0 1.0
30/09:00pm 14.5 12.6 11.7 83 1.5 W 13 19 7 10 1007.1 1007.0 1.0
30/08:30pm 14.3 11.9 11.5 83 1.5 W 15 19 8 10 1007.3 1007.3 1.0
30/08:00pm 14.0 12.6 12.3 89 0.9 WNW 11 17 6 9 1007.3 1007.3 1.0
30/07:30pm 13.9 12.5 12.2 89 0.9 NW 11 15 6 8 1007.4 1007.4 1.0
30/07:00pm 13.7 11.5 12.0 89 0.9 WNW 15 20 8 11 1007.1 1007.0 1.0
30/06:30pm 14.6 10.8 11.2 80 1.8 W 22 32 12 17 1007.2 1007.1 0.8
30/06:00pm 15.9 12.3 10.0 68 3.1 WSW 19 26 10 14 1007.0 1006.9 0.8
30/05:30pm 16.2 11.9 9.5 64 3.5 W 22 32 12 17 1007.0 1006.9 0.8
30/05:00pm 16.7 11.0 9.7 63 3.7 W 30 41 16 22 1006.9 1006.8 0.8
30/04:30pm 16.8 11.3 9.1 60 4.0 W 28 37 15 20 1006.9 1006.8 0.8
30/04:00pm 16.0 10.9 11.8 76 2.3 W 30 43 16 23 1007.1 1007.0 0.8
30/03:30pm 16.8 11.8 11.1 69 3.1 W 28 37 15 20 1007.1 1007.0 0.8
30/03:06pm 17.5 12.5 10.8 65 3.6 W 28 48 15 26 1007.2 1007.1 0.8
30/03:00pm 16.7 12.8 12.2 75 2.5 WNW 24 33 13 18 1007.2 1007.1 0.8
30/02:43pm 17.0 11.1 10.4 65 3.5 W 32 52 17 28 1007.2 1007.1 0.8
30/02:30pm 17.7 11.2 8.9 56 4.6 WNW 33 44 18 24 1007.0 1006.9 0.8
30/02:00pm 18.4 11.2 9.3 55 4.8 W 37 56 20 30 1007.2 1007.1 0.8
30/01:51pm 18.4 11.6 9.1 54 4.9 W 35 56 19 30 1007.2 1007.1 0.8
30/01:30pm 18.4 11.6 9.3 55 4.8 W 35 48 19 26 1007.4 1007.4 0.8
30/01:00pm 18.4 11.2 10.6 60 4.2 W 39 52 21 28 1007.7 1007.7 0.8
30/12:30pm 17.0 12.4 13.6 80 1.9 W 30 43 16 23 1007.7 1007.7 0.8
30/12:21pm 16.4 12.7 13.9 85 1.4 W 26 35 14 19 1007.8 1007.8 0.8
30/12:00pm 15.6 11.0 13.6 88 1.1 WNW 30 50 16 27 1008.1 1008.1 0.6
30/11:51am 16.0 12.2 14.8 93 0.7 WNW 28 43 15 23 1008.0 1008.0 0.6
30/11:30am 15.7 10.2 12.4 81 1.8 WNW 33 48 18 26 1008.2 1008.2 0.2
30/11:00am 15.2 8.3 11.7 79 1.9 WNW 39 56 21 30 1008.4 1008.4 0.0
30/10:54am 15.6 9.2 11.9 78 2.0 NW 37 56 20 30 1008.4 1008.4 0.0
30/10:30am 17.8 11.4 9.2 57 4.5 WNW 33 46 18 25 1008.4 1008.4 0.0
30/10:00am 17.2 10.8 8.7 57 4.4 NW 32 46 17 25 1008.6 1008.6 0.0
30/09:30am 17.1 11.4 8.5 57 4.4 WNW 28 37 15 20 1008.6 1008.6 0.0
30/09:19am 17.0 11.3 8.4 57 4.4 NW 28 39 15 21 1008.8 1008.8 0.0
30/09:00am 14.7 12.2 8.1 64 3.3 NNE 11 17 6 9 1008.8 1008.8 0.0
30/08:30am 13.2 9.8 7.7 69 2.7 NNE 15 19 8 10 1008.8 1008.8 0.0
30/08:00am 11.5 8.0 7.1 74 2.1 NNE 15 17 8 9 1009.2 1009.2 0.0
30/07:30am 10.7 7.9 7.1 78 1.7 NNE 11 15 6 8 1009.3 1009.3 0.0
30/07:00am 9.4 6.2 6.8 84 1.2 NNE 13 17 7 9 1009.2 1009.2 0.0
30/06:30am 9.0 5.9 7.1 88 0.9 NNE 13 17 7 9 1009.0 1009.0 0.0
30/06:00am 7.4 4.4 6.1 91 0.6 NNE 11 13 6 7 1009.2 1009.2 0.0
30/05:30am 8.4 4.7 6.5 88 0.9 NNE 15 17 8 9 1009.2 1009.2 0.0
30/05:00am 8.9 6.5 7.0 88 0.9 NNE 9 13 5 7 1009.9 1009.9 0.0
30/04:30am 8.8 6.1 7.3 90 0.7 NNE 11 13 6 7 1009.9 1009.9 0.0
30/04:00am 8.5 6.2 7.4 93 0.5 NNE 9 11 5 6 1010.1 1010.1 0.0
30/03:30am 8.5 6.2 7.4 93 0.5 NNE 9 11 5 6 1010.5 1010.5 0.0
30/03:00am 7.9 5.6 7.3 96 0.3 NNE 9 9 5 5 1010.7 1010.7 0.0
30/02:30am 6.7 4.4 5.8 94 0.4 NE 7 9 4 5 1011.0 1011.0 0.0
30/02:00am 6.3 5.2 5.2 93 0.5 CALM 0 6 0 3 1011.3 1011.3 0.0
30/01:30am 5.4 4.3 4.9 97 0.2 CALM 0 0 0 0 1011.4 1011.4 0.0
30/01:00am 5.9 4.7 4.7 92 0.5 CALM 0 0 0 0 1011.8 1011.8 0.0
30/12:30am 5.6 4.4 4.4 92 0.5 CALM 0 0 0 0 1012.0 1012.0 0.0
30/12:00am 5.8 4.6 4.6 92 0.5 CALM 0 0 0 0 1012.3 1012.3 0.0
 
Date/Time
WST
Temp
°C
App
Temp
°C
Dew
Point
°C
Rel
Hum
%
Delta-T
°C
Wind Press
QNH
hPa
Press
MSL
hPa
Rain since
9am
mm
Dir  Spd
km/h
Gust
km/h
Spd
kts
Gust
kts
29/11:30pm 5.9 4.8 5.0 94 0.4 CALM 0 0 0 0 1012.8 1012.8 0.0
29/11:00pm 6.4 5.3 5.0 91 0.6 CALM 0 0 0 0 1013.1 1013.1 0.0
29/10:30pm 6.7 5.6 5.1 89 0.7 CALM 0 0 0 0 1013.6 1013.6 0.0
29/10:00pm 7.8 7.0 6.5 91 0.6 CALM 0 0 0 0 1014.1 1014.1 0.0
29/09:30pm 7.6 5.8 5.4 86 1.0 SSE 4 6 2 3 1014.5 1014.5 0.0
29/09:00pm 8.0 6.3 5.8 86 1.0 SSE 4 6 2 3 1015.0 1015.0 0.0
29/08:30pm 8.8 6.5 5.7 81 1.4 SSE 7 9 4 5 1015.3 1015.3 0.0
29/08:00pm 9.2 6.5 5.7 79 1.6 S 9 9 5 5 1015.4 1015.4 0.0
29/07:30pm 11.2 9.2 6.3 72 2.3 S 6 6 3 3 1015.2 1015.2 0.0
29/07:00pm 12.7 9.8 6.4 65 3.0 SSW 11 13 6 7 1015.2 1015.2 0.0
29/06:30pm 13.5 9.7 5.6 59 3.7 SW 15 20 8 11 1015.3 1015.3 0.0
29/06:00pm 14.4 9.7 5.3 54 4.3 SW 19 24 10 13 1015.0 1015.0 0.0
29/05:30pm 15.3 10.4 4.0 47 5.2 SW 19 22 10 12 1015.0 1015.0 0.0
29/05:00pm 16.2 11.7 4.2 45 5.6 WSW 17 22 9 12 1015.0 1015.0 0.0
29/04:30pm 16.3 11.1 3.5 42 5.9 SW 20 30 11 16 1015.1 1015.1 0.0
29/04:00pm 17.0 13.0 3.0 39 6.4 SW 13 19 7 10 1015.0 1015.0 0.0
29/03:30pm 17.5 12.9 3.8 40 6.4 SW 17 20 9 11 1015.6 1015.6 0.0
29/03:00pm 17.2 13.3 3.6 40 6.3 WSW 13 20 7 11 1016.0 1016.0 0.0
29/02:30pm 16.9 11.2 2.9 39 6.4 WSW 22 30 12 16 1016.9 1016.9 0.0
29/02:00pm 17.4 12.3 3.0 38 6.6 WSW 19 24 10 13 1017.5 1017.5 0.0
29/01:30pm 17.5 14.2 2.6 37 6.8 NW 9 13 5 7 1017.9 1017.9 0.0
29/01:00pm 17.0 13.3 2.1 36 6.7 NW 11 15 6 8 1018.6 1018.6 0.0
29/12:30pm 17.0 14.1 2.4 37 6.6 NNW 7 17 4 9 1019.0 1019.0 0.0
29/12:00pm 16.2 12.9 2.4 39 6.2 NNE 9 19 5 10 1019.6 1019.6 0.0
29/11:30am 15.6 11.9 2.4 41 5.9 NNE 11 19 6 10 1020.3 1020.3 0.0
29/11:00am 14.9 10.4 2.2 42 5.6 NE 15 24 8 13 1020.9 1020.9 0.0
29/10:30am 14.4 10.3 2.4 44 5.3 NNE 13 20 7 11 1021.7 1021.7 0.0
29/10:00am 14.3 10.7 2.8 46 5.1 NNE 11 17 6 9 1022.2 1022.2 0.0
29/09:30am 13.0 8.2 2.5 49 4.6 NNE 17 24 9 13 1022.1 1022.1 0.0
29/09:00am 12.3 6.7 1.4 47 4.6 NE 20 30 11 16 1022.1 1022.1 0.0
29/08:30am 11.4 5.4 0.8 48 4.4 ENE 22 30 12 16 1022.1 1022.1 0.0
29/08:00am 10.6 5.7 2.1 55 3.6 ENE 17 22 9 12 1022.2 1022.2 0.0
29/07:30am 9.4 4.8 1.7 58 3.2 ENE 15 20 8 11 1022.3 1022.3 0.0
29/07:00am 8.0 3.5 2.2 67 2.4 NE 15 17 8 9 1022.4 1022.4 0.0
29/06:30am 7.0 2.0 1.5 68 2.2 NE 17 24 9 13 1022.3 1022.3 0.0
29/06:00am 5.2 1.3 1.4 76 1.5 NE 11 17 6 9 1022.3 1022.3 0.0
29/05:30am 5.3 2.4 1.5 76 1.5 NE 6 7 3 4 1022.3 1022.3 0.0
29/05:00am 5.4 2.0 1.6 76 1.5 ENE 9 13 5 7 1022.2 1022.2 0.0
29/04:30am 6.3 2.1 1.5 71 1.9 ENE 13 17 7 9 1022.2 1022.2 0.0
29/04:00am 6.1 3.3 2.1 75 1.6 E 6 9 3 5 1022.1 1022.1 0.0
29/03:30am 6.2 2.9 2.3 76 1.6 E 9 15 5 8 1021.8 1021.8 0.0
29/03:00am 6.5 3.2 2.6 76 1.6 E 9 13 5 7 1021.8 1021.8 0.0
29/02:30am 7.0 3.4 2.7 74 1.8 E 11 17 6 9 1022.0 1022.0 0.0
29/02:00am 6.9 3.0 3.3 78 1.5 E 13 19 7 10 1022.3 1022.3 0.0
29/01:30am 7.0 3.4 3.2 77 1.6 ESE 11 15 6 8 1022.7 1022.7 0.0
29/01:00am 6.5 2.7 3.7 82 1.2 ESE 13 15 7 8 1022.9 1022.9 0.0
29/12:30am 7.2 2.6 3.7 78 1.5 ESE 17 19 9 10 1023.1 1023.1 0.0
29/12:00am 4.4 2.6 3.2 92 0.5 ESE 2 6 1 3 1023.4 1023.4 0.0
 
Date/Time
WST
Temp
°C
App
Temp
°C
Dew
Point
°C
Rel
Hum
%
Delta-T
°C
Wind Press
QNH
hPa
Press
MSL
hPa
Rain since
9am
mm
Dir  Spd
km/h
Gust
km/h
Spd
kts
Gust
kts
28/11:30pm 4.8 3.4 3.6 92 0.5 CALM 0 0 0 0 1023.3 1023.3 0.0
28/11:00pm 5.8 4.5 4.1 89 0.7 CALM 0 0 0 0 1023.3 1023.3 0.0
28/10:30pm 6.3 4.5 5.2 93 0.5 SE 4 7 2 4 1023.3 1023.3 0.0
28/10:00pm 7.0 5.9 4.9 86 0.9 CALM 0 0 0 0 1023.5 1023.5 0.0
28/09:30pm 7.3 5.0 4.8 84 1.1 SE 6 7 3 4 1023.7 1023.7 0.0
28/09:00pm 8.1 5.2 4.9 80 1.4 SE 9 9 5 5 1023.7 1023.7 0.0
28/08:30pm 9.6 6.4 5.1 73 2.0 S 11 13 6 7 1023.6 1023.6 0.0
28/08:00pm 10.5 7.4 5.5 71 2.3 SSW 11 15 6 8 1023.6 1023.6 0.0
28/07:30pm 10.9 7.8 5.4 69 2.5 SW 11 15 6 8 1023.6 1023.6 0.0
28/07:00pm 11.5 7.9 5.2 65 2.9 SSW 13 19 7 10 1023.4 1023.4 0.0
28/06:30pm 12.1 7.4 5.1 62 3.2 SSW 19 24 10 13 1023.2 1023.2 0.0
28/06:00pm 12.8 7.9 5.0 59 3.6 SSW 20 26 11 14 1022.9 1022.9 0.0
28/05:30pm 13.8 8.5 5.0 55 4.1 SW 22 26 12 14 1022.7 1022.7 0.0
28/05:00pm 14.7 10.0 5.1 52 4.5 SW 19 26 10 14 1022.4 1022.4 0.0
28/04:30pm 15.2 10.4 4.7 49 4.9 WSW 19 26 10 14 1022.3 1022.3 0.0
28/04:00pm 15.1 10.1 4.6 49 4.9 SW 20 28 11 15 1022.4 1022.4 0.0
28/03:30pm 15.0 10.0 3.6 46 5.2 SW 19 30 10 16 1022.6 1022.6 0.0
28/03:00pm 14.8 11.0 2.0 42 5.6 SSW 11 20 6 11 1022.6 1022.6 0.0
28/02:30pm 14.5 10.1 2.5 44 5.3 SE 15 20 8 11 1022.6 1022.6 0.0
28/02:00pm 14.7 9.4 1.9 42 5.6 SSE 19 32 10 17 1022.8 1022.8 0.0
28/01:30pm 15.1 9.5 1.2 39 6.0 S 20 30 11 16 1023.0 1023.0 0.0
28/01:00pm 14.6 9.4 2.4 43 5.4 S 19 24 10 13 1023.3 1023.3 0.0

Other Formats:

Comma delimited format used in spreadsheet applications
http://www.bom.gov.au/fwo/IDW60801/IDW60801.94609.axf

JavaScript Object Notation format (JSON) in row-major order
http://www.bom.gov.au/fwo/IDW60801/IDW60801.94609.json